createdAt,value
2018-06-12T00:01:14.877Z,16.50
2018-06-12T00:03:43.666Z,16.50
2018-06-12T00:06:12.473Z,16.50
2018-06-12T00:11:10.089Z,16.50
2018-06-12T00:13:38.937Z,16.50
2018-06-12T00:16:07.765Z,16.50
2018-06-12T00:18:36.625Z,16.50
2018-06-12T00:21:05.484Z,16.50
2018-06-12T00:26:02.798Z,16.50
2018-06-12T00:28:31.708Z,16.50
2018-06-12T00:31:00.585Z,16.50
2018-06-12T00:33:29.693Z,16.50
2018-06-12T00:35:58.573Z,16.50
2018-06-12T00:38:27.421Z,16.50
2018-06-12T00:40:56.269Z,16.50
2018-06-12T00:43:25.145Z,16.50
2018-06-12T00:45:54.021Z,16.50
2018-06-12T00:48:22.890Z,16.50
2018-06-12T00:50:51.705Z,16.50
2018-06-12T00:53:20.581Z,16.50
2018-06-12T00:55:50.381Z,16.50
2018-06-12T00:58:20.216Z,16.50
2018-06-12T01:00:49.137Z,16.50
2018-06-12T01:03:18.013Z,16.50
2018-06-12T01:05:46.857Z,16.50
2018-06-12T01:10:44.145Z,16.50
2018-06-12T01:13:13.053Z,16.50
2018-06-12T01:15:41.941Z,16.50
2018-06-12T01:18:10.801Z,16.50
2018-06-12T01:20:39.601Z,16.50
2018-06-12T01:23:08.461Z,16.50
2018-06-12T01:25:37.265Z,16.50
2018-06-12T01:28:06.097Z,16.50
2018-06-12T01:30:35.033Z,16.50
2018-06-12T01:33:03.853Z,16.50
2018-06-12T01:35:32.713Z,16.60
2018-06-12T01:38:01.546Z,16.60
2018-06-12T01:40:30.430Z,16.60
2018-06-12T01:42:59.637Z,16.60
2018-06-12T01:45:28.421Z,16.60
2018-06-12T01:47:57.306Z,16.60
2018-06-12T01:50:26.141Z,16.60
2018-06-12T01:52:54.993Z,16.60
2018-06-12T01:55:23.869Z,16.60
2018-06-12T01:57:52.785Z,16.60
2018-06-12T02:00:21.625Z,16.60
2018-06-12T02:02:50.421Z,16.60
2018-06-12T02:05:19.445Z,16.60
2018-06-12T02:07:48.369Z,16.60
2018-06-12T02:10:17.237Z,16.60
2018-06-12T02:12:46.129Z,16.60
2018-06-12T02:15:14.969Z,16.60
2018-06-12T02:17:43.737Z,16.60
2018-06-12T02:20:12.546Z,16.60
2018-06-12T02:22:42.277Z,16.60
2018-06-12T02:25:11.109Z,16.60
2018-06-12T02:27:39.925Z,16.60
2018-06-12T02:30:08.750Z,16.60
2018-06-12T02:32:37.653Z,16.60
2018-06-12T02:35:06.529Z,16.60
2018-06-12T02:37:35.412Z,16.60
2018-06-12T02:40:04.276Z,16.60
2018-06-12T02:42:33.098Z,16.60
2018-06-12T02:45:01.933Z,16.60
2018-06-12T02:47:30.766Z,16.60
2018-06-12T02:49:59.677Z,16.60
2018-06-12T02:52:28.580Z,16.60
2018-06-12T02:54:57.400Z,16.60
2018-06-12T02:57:26.225Z,16.60
2018-06-12T02:59:55.021Z,16.60
2018-06-12T03:02:23.910Z,16.60
2018-06-12T03:04:52.780Z,16.60
2018-06-12T03:07:21.541Z,16.60
2018-06-12T03:09:50.384Z,16.60
2018-06-12T03:12:19.248Z,16.60
2018-06-12T03:14:48.110Z,16.60
2018-06-12T03:17:17.965Z,16.60
2018-06-12T03:19:46.980Z,16.60
2018-06-12T03:22:15.817Z,16.60
2018-06-12T03:24:44.617Z,16.60
2018-06-12T03:29:42.013Z,16.60
2018-06-12T03:32:10.828Z,16.60
2018-06-12T03:34:39.648Z,16.50
2018-06-12T03:37:09.541Z,16.50
2018-06-12T03:39:38.393Z,16.50
2018-06-12T03:42:07.316Z,16.50
2018-06-12T03:44:36.138Z,16.50
2018-06-12T03:47:05.077Z,16.40
2018-06-12T03:49:33.934Z,16.40
2018-06-12T03:52:03.013Z,16.40
2018-06-12T03:54:31.849Z,16.40
2018-06-12T03:57:00.773Z,16.40
2018-06-12T03:59:29.569Z,16.40
2018-06-12T04:01:58.409Z,16.40
2018-06-12T04:04:27.261Z,16.40
2018-06-12T04:06:56.105Z,16.40
2018-06-12T04:09:25.035Z,16.40
2018-06-12T04:11:53.857Z,16.40
2018-06-12T04:14:22.684Z,16.40
2018-06-12T04:16:51.472Z,16.50
2018-06-12T04:19:20.268Z,16.50
2018-06-12T04:21:49.052Z,16.40
2018-06-12T04:24:17.840Z,16.50
2018-06-12T04:26:46.640Z,16.50
2018-06-12T04:29:15.409Z,16.50
2018-06-12T04:31:44.278Z,16.50
2018-06-12T04:34:13.105Z,16.50
2018-06-12T04:36:42.076Z,16.50
2018-06-12T04:39:10.872Z,16.50
2018-06-12T04:41:39.988Z,16.50
2018-06-12T04:44:08.777Z,16.60
2018-06-12T04:46:37.568Z,16.60
2018-06-12T04:49:06.352Z,16.50
2018-06-12T04:51:35.161Z,16.60
2018-06-12T04:54:04.025Z,16.60
2018-06-12T04:56:32.805Z,16.60
2018-06-12T04:59:01.577Z,16.70
2018-06-12T05:01:30.391Z,16.70
2018-06-12T05:03:59.200Z,16.70
2018-06-12T05:06:27.944Z,16.80
2018-06-12T05:08:56.734Z,16.80
2018-06-12T05:11:25.524Z,16.80
2018-06-12T05:13:54.332Z,16.90
2018-06-12T05:16:23.195Z,16.90
2018-06-12T05:18:52.005Z,16.90
2018-06-12T05:21:20.801Z,16.90
2018-06-12T05:23:49.588Z,17.00
2018-06-12T05:26:18.356Z,17.00
2018-06-12T05:28:47.136Z,17.10
2018-06-12T05:31:15.936Z,17.20
2018-06-12T05:33:44.740Z,17.20
2018-06-12T05:36:13.524Z,17.30
2018-06-12T05:38:43.387Z,17.40
2018-06-12T05:41:12.212Z,17.50
2018-06-12T05:43:41.020Z,17.60
2018-06-12T05:46:09.769Z,17.60
2018-06-12T05:48:38.552Z,17.70
2018-06-12T05:51:07.372Z,17.70
2018-06-12T05:53:36.140Z,17.80
2018-06-12T05:56:04.869Z,17.80
2018-06-12T05:58:33.633Z,17.90
2018-06-12T06:01:02.412Z,17.90
2018-06-12T06:03:31.209Z,17.90
2018-06-12T06:05:59.989Z,17.90
2018-06-12T06:08:28.784Z,18.00
2018-06-12T06:10:57.637Z,18.00
2018-06-12T06:13:26.428Z,18.10
2018-06-12T06:15:55.228Z,18.10
2018-06-12T06:18:24.033Z,18.10
2018-06-12T06:20:52.805Z,18.10
2018-06-12T06:23:21.597Z,18.10
2018-06-12T06:25:50.410Z,18.20
2018-06-12T06:28:19.165Z,18.20
2018-06-12T06:30:47.968Z,18.20
2018-06-12T06:33:16.760Z,18.20
2018-06-12T06:35:45.537Z,18.20
2018-06-12T06:38:14.332Z,18.20
2018-06-12T06:40:43.112Z,18.20
2018-06-12T06:43:11.925Z,18.20
2018-06-12T06:45:40.707Z,18.30
2018-06-12T06:50:37.968Z,18.40
2018-06-12T06:53:06.724Z,18.40
2018-06-12T06:55:35.680Z,18.50
2018-06-12T06:58:04.668Z,18.50
2018-06-12T07:00:33.511Z,18.60
2018-06-12T07:03:02.220Z,18.70
2018-06-12T07:05:30.991Z,18.70
2018-06-12T07:07:59.764Z,18.80
2018-06-12T07:10:29.584Z,18.90
2018-06-12T07:12:58.367Z,19.00
2018-06-12T07:15:27.080Z,19.10
2018-06-12T07:17:55.827Z,19.20
2018-06-12T07:20:35.916Z,19.30
2018-06-12T07:23:04.935Z,19.40
2018-06-12T07:25:33.779Z,19.50
2018-06-12T07:28:02.588Z,19.70
2018-06-12T07:30:31.319Z,19.80
2018-06-12T07:33:00.495Z,19.90
2018-06-12T07:35:29.361Z,20.00
2018-06-12T07:37:58.160Z,20.10
2018-06-12T07:40:26.930Z,20.30
2018-06-12T07:47:52.772Z,20.60
2018-06-12T07:50:21.600Z,20.70
2018-06-12T07:52:50.324Z,20.80
2018-06-12T07:55:19.116Z,20.90
2018-06-12T07:57:47.908Z,20.90
2018-06-12T08:00:16.692Z,21.00
2018-06-12T08:02:45.504Z,21.10
2018-06-12T08:05:14.299Z,21.10
2018-06-12T08:07:44.080Z,21.10
2018-06-12T08:10:12.876Z,21.20
2018-06-12T08:12:41.696Z,21.30
2018-06-12T08:15:10.460Z,21.30
2018-06-12T08:17:39.260Z,21.40
2018-06-12T08:20:08.037Z,21.50
2018-06-12T08:22:36.809Z,21.60
2018-06-12T08:25:05.608Z,21.80
2018-06-12T08:27:35.404Z,22.00
2018-06-12T08:30:04.810Z,22.20
2018-06-12T08:32:33.525Z,22.40
2018-06-12T08:35:02.345Z,22.60
2018-06-12T08:37:31.188Z,22.80
2018-06-12T08:39:59.990Z,22.90
2018-06-12T08:42:28.781Z,23.10
2018-06-12T08:44:58.504Z,23.30
2018-06-12T08:47:27.253Z,23.40
2018-06-12T08:49:56.017Z,23.60
2018-06-12T08:52:25.300Z,23.80
2018-06-12T08:54:54.648Z,23.90
2018-06-12T08:57:23.424Z,24.10
2018-06-12T08:59:52.224Z,24.20
2018-06-12T09:02:21.004Z,24.40
2018-06-12T09:04:49.785Z,24.50
2018-06-12T09:07:18.581Z,24.70
2018-06-12T09:09:47.361Z,24.80
2018-06-12T09:12:16.141Z,24.90
2018-06-12T09:14:44.936Z,25.00
2018-06-12T09:17:13.732Z,25.10
2018-06-12T09:19:42.500Z,25.10
2018-06-12T09:22:11.310Z,25.20
2018-06-12T09:24:40.096Z,25.30
2018-06-12T09:27:08.824Z,25.40
2018-06-12T09:29:37.560Z,25.40
2018-06-12T09:32:06.296Z,25.50
2018-06-12T09:34:35.033Z,25.60
2018-06-12T09:37:03.816Z,25.60
2018-06-12T09:39:32.617Z,25.60
2018-06-12T09:42:01.413Z,25.60
2018-06-12T09:44:30.192Z,25.60
2018-06-12T09:46:58.920Z,25.50
2018-06-12T09:49:27.688Z,25.50
2018-06-12T09:51:56.448Z,25.40
2018-06-12T09:54:25.525Z,25.40
2018-06-12T09:56:54.344Z,25.30
2018-06-12T09:59:23.124Z,25.30
2018-06-12T10:01:51.908Z,25.20
2018-06-12T10:04:20.748Z,25.20
2018-06-12T10:06:49.423Z,25.20
2018-06-12T10:09:18.172Z,25.20
2018-06-12T10:11:46.939Z,25.20
2018-06-12T10:14:15.660Z,25.20
2018-06-12T10:16:44.432Z,25.20
2018-06-12T10:19:13.215Z,25.30
2018-06-12T10:21:41.984Z,25.30
2018-06-12T10:24:10.804Z,25.40
2018-06-12T10:26:39.580Z,25.40
2018-06-12T10:29:08.364Z,25.50
2018-06-12T10:31:38.160Z,25.50
2018-06-12T10:34:06.968Z,25.60
2018-06-12T10:36:35.744Z,25.70
2018-06-12T10:39:07.112Z,25.70
2018-06-12T10:41:35.895Z,25.70
2018-06-12T10:44:04.672Z,25.80
2018-06-12T10:46:33.467Z,25.80
2018-06-12T10:49:02.256Z,25.80
2018-06-12T10:51:31.040Z,25.80
2018-06-12T10:53:59.835Z,25.90
2018-06-12T10:56:28.610Z,25.90
2018-06-12T10:58:57.323Z,25.90
2018-06-12T11:03:54.596Z,26.00
2018-06-12T11:06:23.388Z,26.00
2018-06-12T11:08:52.148Z,26.10
2018-06-12T11:11:20.936Z,26.10
2018-06-12T11:13:49.736Z,26.20
2018-06-12T11:16:18.496Z,26.30
2018-06-12T11:18:47.287Z,26.40
2018-06-12T11:21:16.083Z,26.50
2018-06-12T11:23:44.879Z,26.60
2018-06-12T11:26:13.675Z,26.70
2018-06-12T11:28:42.444Z,26.80
2018-06-12T11:31:11.252Z,26.90
2018-06-12T11:33:39.976Z,27.00
2018-06-12T11:36:08.788Z,27.00
2018-06-12T11:38:37.595Z,27.10
2018-06-12T11:41:06.332Z,27.00
2018-06-12T11:43:35.049Z,27.10
2018-06-12T11:46:03.895Z,27.10
2018-06-12T11:51:02.166Z,27.20
2018-06-12T11:53:30.996Z,27.30
2018-06-12T11:55:59.868Z,27.30
2018-06-12T11:58:28.651Z,27.40
2018-06-12T12:03:25.883Z,27.50
2018-06-12T12:05:54.672Z,27.60
2018-06-12T12:08:23.447Z,27.80
2018-06-12T12:10:52.258Z,27.90
2018-06-12T12:13:21.047Z,28.00
2018-06-12T12:18:18.430Z,28.10
2018-06-12T12:20:47.554Z,28.20
2018-06-12T12:23:23.365Z,28.10
2018-06-12T12:25:59.195Z,28.00
2018-06-12T12:28:34.498Z,27.90
2018-06-12T12:31:03.342Z,27.80
2018-06-12T12:33:32.127Z,27.70
2018-06-12T12:36:00.950Z,27.60
2018-06-12T12:38:29.706Z,27.50
2018-06-12T12:40:58.422Z,27.30
2018-06-12T12:43:28.162Z,27.20
2018-06-12T12:45:56.994Z,27.10
2018-06-12T12:48:25.859Z,27.00
2018-06-12T12:53:24.066Z,26.70
2018-06-12T12:55:52.858Z,26.60
2018-06-12T12:58:21.570Z,26.50
2018-06-12T13:00:50.339Z,26.40
2018-06-12T13:03:20.023Z,26.20
2018-06-12T13:05:48.822Z,26.10
2018-06-12T13:08:17.674Z,26.00
2018-06-12T13:10:46.434Z,25.80
2018-06-12T13:13:15.194Z,25.70
2018-06-12T13:15:43.991Z,25.50
2018-06-12T13:18:12.783Z,25.40
2018-06-12T13:20:41.579Z,25.20
2018-06-12T13:23:10.371Z,25.10
2018-06-12T13:25:39.119Z,24.90
2018-06-12T13:28:08.953Z,24.80
2018-06-12T13:30:38.756Z,24.60
2018-06-12T13:33:07.795Z,24.50
2018-06-12T13:35:36.628Z,24.40
2018-06-12T13:38:05.371Z,24.30
2018-06-12T13:40:34.106Z,24.30
2018-06-12T13:43:02.899Z,24.10
2018-06-12T13:45:31.708Z,24.10
2018-06-12T13:48:00.471Z,24.00
2018-06-12T13:50:29.215Z,24.00
2018-06-12T13:52:57.957Z,24.10
2018-06-12T13:55:26.763Z,24.10
2018-06-12T14:00:24.008Z,24.20
2018-06-12T14:02:52.815Z,24.30
2018-06-12T14:05:21.571Z,24.40
2018-06-12T14:07:50.391Z,24.60
2018-06-12T14:10:19.183Z,24.90
2018-06-12T14:15:16.428Z,25.40
2018-06-12T14:17:45.203Z,25.60
2018-06-12T14:20:14.019Z,25.90
2018-06-12T14:22:42.807Z,26.00
2018-06-12T14:25:11.599Z,26.10
2018-06-12T14:27:40.358Z,26.10
2018-06-12T14:30:09.143Z,26.20
2018-06-12T14:32:37.936Z,26.10
2018-06-12T14:35:06.743Z,26.20
2018-06-12T14:37:35.526Z,26.20
2018-06-12T14:40:04.331Z,26.20
2018-06-12T14:45:01.563Z,26.20
2018-06-12T14:47:30.346Z,26.20
2018-06-12T14:49:59.082Z,26.20
2018-06-12T14:52:27.825Z,26.20
2018-06-12T14:54:56.602Z,26.20
2018-06-12T14:57:25.405Z,26.20
2018-06-12T14:59:54.171Z,26.20
2018-06-12T15:02:22.974Z,26.20
2018-06-12T15:04:51.758Z,26.20
2018-06-12T15:07:20.555Z,26.20
2018-06-12T15:09:49.339Z,26.30
2018-06-12T15:12:18.121Z,26.30
2018-06-12T15:14:46.873Z,26.30
2018-06-12T15:17:15.608Z,26.40
2018-06-12T15:19:44.351Z,26.50
2018-06-12T15:22:13.158Z,26.50
2018-06-12T15:24:41.952Z,26.50
2018-06-12T15:27:10.745Z,26.50
2018-06-12T15:29:39.531Z,26.60
2018-06-12T15:32:08.335Z,26.60
2018-06-12T15:34:37.119Z,26.50
2018-06-12T15:37:06.034Z,26.50
2018-06-12T15:39:34.787Z,26.40
2018-06-12T15:42:03.596Z,26.30
2018-06-12T15:44:32.350Z,26.20
2018-06-12T15:47:01.087Z,26.20
2018-06-12T15:49:29.839Z,26.20
2018-06-12T15:51:58.578Z,26.30
2018-06-12T15:54:27.422Z,26.40
2018-06-12T15:56:56.207Z,26.40
2018-06-12T15:59:25.007Z,26.40
2018-06-12T16:01:53.793Z,26.50
2018-06-12T16:04:22.539Z,26.40
2018-06-12T16:06:51.354Z,26.50
2018-06-12T16:09:20.175Z,26.50
2018-06-12T16:11:48.967Z,26.40
2018-06-12T16:14:17.726Z,26.40
2018-06-12T16:16:46.510Z,26.40
2018-06-12T16:19:15.294Z,26.30
2018-06-12T16:21:44.082Z,26.20
2018-06-12T16:24:12.882Z,26.10
2018-06-12T16:29:10.134Z,25.90
2018-06-12T16:31:38.923Z,25.90
2018-06-12T16:34:07.718Z,25.70
2018-06-12T16:36:36.517Z,25.50
2018-06-12T16:39:07.274Z,25.50
2018-06-12T16:41:36.230Z,25.40
2018-06-12T16:44:05.206Z,25.40
2018-06-12T16:46:34.006Z,25.20
2018-06-12T16:49:02.970Z,25.20
2018-06-12T16:51:31.670Z,25.10
2018-06-12T16:54:00.474Z,25.00
2018-06-12T16:56:29.219Z,24.90
2018-06-12T16:58:57.966Z,24.80
2018-06-12T17:01:27.762Z,24.80
2018-06-12T17:03:56.734Z,24.70
2018-06-12T17:06:25.542Z,24.70
2018-06-12T17:08:54.322Z,24.60
2018-06-12T17:11:23.126Z,24.50
2018-06-12T17:13:51.922Z,24.40
2018-06-12T17:16:21.808Z,24.40
2018-06-12T17:18:50.499Z,24.30
2018-06-12T17:21:19.290Z,24.30
2018-06-12T17:23:48.070Z,24.30
2018-06-12T17:26:16.874Z,24.20
2018-06-12T17:28:45.654Z,24.10
2018-06-12T17:31:14.362Z,24.00
2018-06-12T17:33:43.110Z,24.00
2018-06-12T17:36:11.854Z,23.90
2018-06-12T17:38:40.609Z,23.80
2018-06-12T17:41:09.479Z,23.80
2018-06-12T17:43:38.277Z,23.60
2018-06-12T17:46:07.098Z,23.50
2018-06-12T17:48:35.814Z,23.40
2018-06-12T17:51:05.566Z,23.40
2018-06-12T17:53:34.341Z,23.30
2018-06-12T17:56:03.145Z,23.20
2018-06-12T17:58:31.910Z,23.20
2018-06-12T18:01:00.658Z,23.10
2018-06-12T18:03:29.400Z,23.00
2018-06-12T18:05:58.257Z,22.90
2018-06-12T18:08:27.106Z,22.80
2018-06-12T18:10:55.890Z,22.70
2018-06-12T18:13:24.685Z,22.60
2018-06-12T18:18:21.921Z,22.40
2018-06-12T18:20:50.701Z,22.40
2018-06-12T18:23:19.433Z,22.30
2018-06-12T18:25:48.177Z,22.20
2018-06-12T18:28:16.993Z,22.10
2018-06-12T18:30:45.753Z,22.00
2018-06-12T18:33:14.545Z,22.00
2018-06-12T18:35:43.365Z,21.90
2018-06-12T18:38:12.141Z,21.80
2018-06-12T18:40:40.914Z,21.70
2018-06-12T18:43:11.137Z,21.70
2018-06-12T18:45:39.950Z,21.60
2018-06-12T18:48:08.729Z,21.50
2018-06-12T18:50:37.547Z,21.50
2018-06-12T18:53:06.450Z,21.40
2018-06-12T18:55:35.278Z,21.40
2018-06-12T18:58:04.090Z,21.30
2018-06-12T19:00:32.861Z,21.20
2018-06-12T19:03:01.699Z,21.20
2018-06-12T19:05:30.585Z,21.00
2018-06-12T19:07:59.453Z,21.00
2018-06-12T19:10:28.226Z,21.00
2018-06-12T19:12:57.009Z,20.90
2018-06-12T19:15:25.794Z,20.80
2018-06-12T19:17:54.601Z,20.80
2018-06-12T19:20:23.370Z,20.70
2018-06-12T19:22:52.230Z,20.70
2018-06-12T19:25:21.061Z,20.60
2018-06-12T19:30:18.325Z,20.50
2018-06-12T19:32:47.274Z,20.40
2018-06-12T19:35:16.082Z,20.40
2018-06-12T19:37:44.918Z,20.30
2018-06-12T19:40:13.685Z,20.20
2018-06-12T19:42:42.450Z,20.20
2018-06-12T19:45:11.249Z,20.10
2018-06-12T19:47:40.061Z,20.00
2018-06-12T19:50:08.849Z,20.00
2018-06-12T19:52:37.606Z,19.90
2018-06-12T19:55:06.441Z,19.80
2018-06-12T20:02:40.854Z,20.30
2018-06-12T20:05:09.641Z,20.20
2018-06-12T20:07:39.382Z,19.90
2018-06-12T20:13:01.689Z,19.60
2018-06-12T20:18:41.782Z,19.40
2018-06-12T20:21:10.605Z,19.40
2018-06-12T20:23:45.873Z,19.30
2018-06-12T20:26:20.913Z,19.20
2018-06-12T20:28:49.729Z,19.10
2018-06-12T20:31:19.625Z,19.10
2018-06-12T20:33:48.397Z,19.00
2018-06-12T20:36:18.269Z,18.80
2018-06-12T20:41:27.717Z,18.80
